sensor_id;sensor_type;location;lat;lon;timestamp;pressure;altitude;pressure_sealevel;temperature;humidity
50057;BME280;36875;49.468;11.200;2023-02-14T00:02:04;99868.59;;;21.23;35.60
50057;BME280;36875;49.468;11.200;2023-02-14T00:04:30;99861.19;;;21.18;35.87
50057;BME280;36875;49.468;11.200;2023-02-14T00:06:55;99857.06;;;21.15;35.44
50057;BME280;36875;49.468;11.200;2023-02-14T00:09:21;99856.81;;;21.12;35.52
50057;BME280;36875;49.468;11.200;2023-02-14T00:11:47;99851.31;;;21.02;35.63
50057;BME280;36875;49.468;11.200;2023-02-14T00:14:13;99836.53;;;20.92;35.74
50057;BME280;36875;49.468;11.200;2023-02-14T00:16:58;99859.25;;;21.03;35.70
50057;BME280;36875;49.468;11.200;2023-02-14T00:19:24;99852.13;;;21.02;35.72
50057;BME280;36875;49.468;11.200;2023-02-14T00:21:50;99858.44;;;20.97;35.34
50057;BME280;36875;49.468;11.200;2023-02-14T00:24:17;99860.63;;;20.95;35.74
50057;BME280;36875;49.468;11.200;2023-02-14T00:26:44;99866.63;;;20.92;35.73
50057;BME280;36875;49.468;11.200;2023-02-14T00:29:11;99870.16;;;20.88;35.73
50057;BME280;36875;49.468;11.200;2023-02-14T00:31:38;99863.59;;;20.89;35.55
50057;BME280;36875;49.468;11.200;2023-02-14T00:34:04;99863.84;;;20.82;35.77
50057;BME280;36875;49.468;11.200;2023-02-14T00:36:31;99863.59;;;20.84;35.52
50057;BME280;36875;49.468;11.200;2023-02-14T00:38:57;99854.22;;;20.69;35.70
50057;BME280;36875;49.468;11.200;2023-02-14T00:41:23;99866.31;;;20.73;35.76
50057;BME280;36875;49.468;11.200;2023-02-14T00:43:50;99875.06;;;20.75;35.73
50057;BME280;36875;49.468;11.200;2023-02-14T00:46:16;99872.59;;;20.74;35.63
50057;BME280;36875;49.468;11.200;2023-02-14T00:48:43;99869.84;;;20.69;35.67
50057;BME280;36875;49.468;11.200;2023-02-14T00:51:09;99875.28;;;20.64;35.61
50057;BME280;36875;49.468;11.200;2023-02-14T00:53:36;99876.13;;;20.64;36.00
50057;BME280;36875;49.468;11.200;2023-02-14T00:56:03;99877.69;;;20.60;35.88
50057;BME280;36875;49.468;11.200;2023-02-14T00:58:29;99864.28;;;20.53;35.78
50057;BME280;36875;49.468;11.200;2023-02-14T01:00:55;99874.41;;;20.58;35.99
50057;BME280;36875;49.468;11.200;2023-02-14T01:03:20;99873.31;;;20.54;35.90
50057;BME280;36875;49.468;11.200;2023-02-14T01:05:46;99862.88;;;20.51;35.80
50057;BME280;36875;49.468;11.200;2023-02-14T01:08:12;99869.72;;;20.48;36.13
50057;BME280;36875;49.468;11.200;2023-02-14T01:10:39;99871.06;;;20.46;35.70
50057;BME280;36875;49.468;11.200;2023-02-14T01:13:05;99867.78;;;20.44;35.86
50057;BME280;36875;49.468;11.200;2023-02-14T01:15:32;99833.50;;;20.20;35.78
50057;BME280;36875;49.468;11.200;2023-02-14T01:17:58;99871.31;;;20.39;35.79
50057;BME280;36875;49.468;11.200;2023-02-14T01:20:24;99863.38;;;20.37;35.53
50057;BME280;36875;49.468;11.200;2023-02-14T01:22:50;99874.03;;;20.34;35.84
50057;BME280;36875;49.468;11.200;2023-02-14T01:25:15;99869.06;;;20.31;35.94
50057;BME280;36875;49.468;11.200;2023-02-14T01:27:43;99838.34;;;20.08;35.88
50057;BME280;36875;49.468;11.200;2023-02-14T01:30:09;99859.47;;;20.23;35.73
50057;BME280;36875;49.468;11.200;2023-02-14T01:32:35;99872.88;;;20.25;35.96
50057;BME280;36875;49.468;11.200;2023-02-14T01:35:01;99876.13;;;20.21;35.77
50057;BME280;36875;49.468;11.200;2023-02-14T01:37:26;99874.50;;;20.20;35.91
50057;BME280;36875;49.468;11.200;2023-02-14T01:39:52;99873.97;;;20.18;35.71
50057;BME280;36875;49.468;11.200;2023-02-14T01:42:18;99870.66;;;20.16;35.57
50057;BME280;36875;49.468;11.200;2023-02-14T01:44:57;99877.47;;;20.14;35.91
50057;BME280;36875;49.468;11.200;2023-02-14T01:47:24;99862.34;;;20.01;35.81
50057;BME280;36875;49.468;11.200;2023-02-14T01:49:54;99881.56;;;20.11;35.82
50057;BME280;36875;49.468;11.200;2023-02-14T01:52:28;99877.72;;;20.07;35.89
50057;BME280;36875;49.468;11.200;2023-02-14T01:54:59;99869.22;;;20.03;35.65
50057;BME280;36875;49.468;11.200;2023-02-14T01:57:27;99864.53;;;19.99;35.63
50057;BME280;36875;49.468;11.200;2023-02-14T01:59:59;99863.47;;;20.00;35.86
50057;BME280;36875;49.468;11.200;2023-02-14T02:02:45;99866.44;;;19.98;35.89
50057;BME280;36875;49.468;11.200;2023-02-14T02:05:11;99859.28;;;19.87;35.68
50057;BME280;36875;49.468;11.200;2023-02-14T02:07:37;99876.81;;;19.96;35.94
50057;BME280;36875;49.468;11.200;2023-02-14T02:10:06;99869.41;;;19.92;35.96
50057;BME280;36875;49.468;11.200;2023-02-14T02:12:32;99871.31;;;19.91;36.10
50057;BME280;36875;49.468;11.200;2023-02-14T02:15:01;99874.56;;;19.88;35.59
50057;BME280;36875;49.468;11.200;2023-02-14T02:17:34;99869.34;;;19.87;35.74
50057;BME280;36875;49.468;11.200;2023-02-14T02:23:19;99843.63;;;19.77;36.03
50057;BME280;36875;49.468;11.200;2023-02-14T02:26:12;99852.34;;;19.74;36.05
50057;BME280;36875;49.468;11.200;2023-02-14T02:29:08;99850.69;;;19.73;35.91
50057;BME280;36875;49.468;11.200;2023-02-14T02:32:03;99858.91;;;19.73;35.63
50057;BME280;36875;49.468;11.200;2023-02-14T02:37:45;99859.38;;;19.70;36.06
50057;BME280;36875;49.468;11.200;2023-02-14T02:40:26;99845.09;;;19.58;35.57
50057;BME280;36875;49.468;11.200;2023-02-14T02:43:01;99861.81;;;19.67;35.76
50057;BME280;36875;49.468;11.200;2023-02-14T02:45:40;99862.09;;;19.65;36.01
50057;BME280;36875;49.468;11.200;2023-02-14T02:48:33;99841.25;;;19.54;35.73
50057;BME280;36875;49.468;11.200;2023-02-14T02:51:06;99857.41;;;19.60;35.89
50057;BME280;36875;49.468;11.200;2023-02-14T02:53:56;99858.75;;;19.58;36.08
50057;BME280;36875;49.468;11.200;2023-02-14T02:56:26;99834.31;;;19.41;36.09
50057;BME280;36875;49.468;11.200;2023-02-14T02:59:13;99849.97;;;19.51;35.85
50057;BME280;36875;49.468;11.200;2023-02-14T03:01:46;99849.69;;;19.52;35.65
50057;BME280;36875;49.468;11.200;2023-02-14T03:04:14;99837.34;;;19.44;36.00
50057;BME280;36875;49.468;11.200;2023-02-14T03:06:59;99831.25;;;19.32;35.92
50057;BME280;36875;49.468;11.200;2023-02-14T03:09:50;99854.31;;;19.47;35.62
50057;BME280;36875;49.468;11.200;2023-02-14T03:12:33;99846.00;;;19.36;35.97
50057;BME280;36875;49.468;11.200;2023-02-14T03:15:09;99858.63;;;19.42;35.79
50057;BME280;36875;49.468;11.200;2023-02-14T03:17:46;99849.81;;;19.35;35.77
50057;BME280;36875;49.468;11.200;2023-02-14T03:20:22;99858.31;;;19.39;35.74
50057;BME280;36875;49.468;11.200;2023-02-14T03:22:51;99862.34;;;19.31;35.77
50057;BME280;36875;49.468;11.200;2023-02-14T03:25:30;99858.28;;;19.34;36.18
50057;BME280;36875;49.468;11.200;2023-02-14T03:28:05;99854.09;;;19.26;35.66
50057;BME280;36875;49.468;11.200;2023-02-14T03:30:41;99859.56;;;19.26;35.92
50057;BME280;36875;49.468;11.200;2023-02-14T03:33:15;99857.97;;;19.30;35.98
50057;BME280;36875;49.468;11.200;2023-02-14T03:35:48;99863.13;;;19.26;36.01
50057;BME280;36875;49.468;11.200;2023-02-14T03:38:19;99848.88;;;19.19;35.85
50057;BME280;36875;49.468;11.200;2023-02-14T03:40:50;99861.47;;;19.25;35.89
50057;BME280;36875;49.468;11.200;2023-02-14T03:43:23;99857.63;;;19.21;35.58
50057;BME280;36875;49.468;11.200;2023-02-14T03:45:50;99860.59;;;19.20;35.65
50057;BME280;36875;49.468;11.200;2023-02-14T03:48:18;99851.53;;;19.14;35.66
50057;BME280;36875;49.468;11.200;2023-02-14T03:50:47;99862.78;;;19.18;35.94
50057;BME280;36875;49.468;11.200;2023-02-14T03:53:17;99836.91;;;18.98;35.91
50057;BME280;36875;49.468;11.200;2023-02-14T03:55:49;99830.09;;;18.96;35.86
50057;BME280;36875;49.468;11.200;2023-02-14T03:58:21;99862.72;;;19.13;35.62
50057;BME280;36875;49.468;11.200;2023-02-14T04:00:51;99846.19;;;18.97;35.80
50057;BME280;36875;49.468;11.200;2023-02-14T04:03:19;99858.03;;;19.08;35.64
50057;BME280;36875;49.468;11.200;2023-02-14T04:05:48;99849.81;;;19.03;35.76
50057;BME280;36875;49.468;11.200;2023-02-14T04:08:19;99859.38;;;19.05;35.87
50057;BME280;36875;49.468;11.200;2023-02-14T04:10:45;99855.00;;;19.04;36.07
50057;BME280;36875;49.468;11.200;2023-02-14T04:13:12;99862.63;;;19.02;35.64
50057;BME280;36875;49.468;11.200;2023-02-14T04:15:37;99858.50;;;19.00;35.92
50057;BME280;36875;49.468;11.200;2023-02-14T04:18:03;99858.75;;;18.98;35.79
50057;BME280;36875;49.468;11.200;2023-02-14T04:20:54;99861.47;;;18.98;35.90
50057;BME280;36875;49.468;11.200;2023-02-14T04:23:20;99864.47;;;18.97;35.64
50057;BME280;36875;49.468;11.200;2023-02-14T04:25:46;99858.44;;;18.95;36.01
50057;BME280;36875;49.468;11.200;2023-02-14T04:28:13;99861.44;;;18.93;35.89
50057;BME280;36875;49.468;11.200;2023-02-14T04:30:38;99854.31;;;18.92;35.65
50057;BME280;36875;49.468;11.200;2023-02-14T04:33:04;99854.56;;;18.91;35.76
50057;BME280;36875;49.468;11.200;2023-02-14T04:35:32;99855.94;;;18.88;36.08
50057;BME280;36875;49.468;11.200;2023-02-14T04:37:57;99850.72;;;18.86;36.09
50057;BME280;36875;49.468;11.200;2023-02-14T04:40:23;99834.50;;;18.80;35.87
50057;BME280;36875;49.468;11.200;2023-02-14T04:42:51;99831.78;;;18.80;35.85
50057;BME280;36875;49.468;11.200;2023-02-14T04:45:18;99843.53;;;18.80;35.68
50057;BME280;36875;49.468;11.200;2023-02-14T04:47:44;99840.22;;;18.78;36.00
50057;BME280;36875;49.468;11.200;2023-02-14T04:50:10;99835.88;;;18.77;35.84
50057;BME280;36875;49.468;11.200;2023-02-14T04:52:36;99830.66;;;18.76;35.89
50057;BME280;36875;49.468;11.200;2023-02-14T04:55:01;99834.44;;;18.75;35.87
50057;BME280;36875;49.468;11.200;2023-02-14T04:57:27;99832.25;;;18.72;36.16
50057;BME280;36875;49.468;11.200;2023-02-14T04:59:52;99833.88;;;18.73;36.27
50057;BME280;36875;49.468;11.200;2023-02-14T05:02:19;99797.41;;;18.52;35.91
50057;BME280;36875;49.468;11.200;2023-02-14T05:04:45;99828.41;;;18.67;36.16
50057;BME280;36875;49.468;11.200;2023-02-14T05:07:10;99822.06;;;18.62;35.71
50057;BME280;36875;49.468;11.200;2023-02-14T05:09:36;99835.97;;;18.65;35.74
50057;BME280;36875;49.468;11.200;2023-02-14T05:12:01;99833.25;;;18.65;36.04
50057;BME280;36875;49.468;11.200;2023-02-14T05:14:27;99820.59;;;18.54;36.09
50057;BME280;36875;49.468;11.200;2023-02-14T05:16:52;99816.47;;;18.52;35.88
50057;BME280;36875;49.468;11.200;2023-02-14T05:19:19;99812.66;;;18.53;35.95
50057;BME280;36875;49.468;11.200;2023-02-14T05:21:45;99824.72;;;18.57;35.78
50057;BME280;36875;49.468;11.200;2023-02-14T05:24:11;99827.22;;;18.58;35.96
50057;BME280;36875;49.468;11.200;2023-02-14T05:26:36;99827.47;;;18.57;36.01
50057;BME280;36875;49.468;11.200;2023-02-14T05:29:02;99823.06;;;18.56;35.99
50057;BME280;36875;49.468;11.200;2023-02-14T05:31:27;99790.63;;;18.32;36.06
50057;BME280;36875;49.468;11.200;2023-02-14T05:33:53;99824.66;;;18.52;36.30
50057;BME280;36875;49.468;11.200;2023-02-14T05:36:20;99801.91;;;18.41;36.08
50057;BME280;36875;49.468;11.200;2023-02-14T05:38:45;99810.41;;;18.44;35.92
50057;BME280;36875;49.468;11.200;2023-02-14T05:41:11;99811.78;;;18.47;35.94
50057;BME280;36875;49.468;11.200;2023-02-14T05:43:36;99808.38;;;18.35;36.20
50057;BME280;36875;49.468;11.200;2023-02-14T05:46:02;99815.53;;;18.41;35.85
50057;BME280;36875;49.468;11.200;2023-02-14T05:48:28;99820.50;;;18.44;35.80
50057;BME280;36875;49.468;11.200;2023-02-14T05:50:53;99821.56;;;18.43;36.36
50057;BME280;36875;49.468;11.200;2023-02-14T05:53:20;99816.63;;;18.40;35.87
50057;BME280;36875;49.468;11.200;2023-02-14T05:55:46;99805.41;;;18.36;36.05
50057;BME280;36875;49.468;11.200;2023-02-14T05:58:11;99799.03;;;18.30;36.02
50057;BME280;36875;49.468;11.200;2023-02-14T06:00:37;99808.63;;;18.33;36.19
50057;BME280;36875;49.468;11.200;2023-02-14T06:03:03;99796.84;;;18.27;36.21
50057;BME280;36875;49.468;11.200;2023-02-14T06:05:29;99811.09;;;18.35;36.15
50057;BME280;36875;49.468;11.200;2023-02-14T06:07:54;99800.94;;;18.30;36.13
50057;BME280;36875;49.468;11.200;2023-02-14T06:10:24;99805.59;;;18.29;36.27
50057;BME280;36875;49.468;11.200;2023-02-14T06:12:51;99806.66;;;18.28;36.39
50057;BME280;36875;49.468;11.200;2023-02-14T06:15:17;99778.09;;;18.09;36.32
50057;BME280;36875;49.468;11.200;2023-02-14T06:17:43;99801.47;;;18.27;36.40
50057;BME280;36875;49.468;11.200;2023-02-14T06:20:09;99811.78;;;18.25;36.10
50057;BME280;36875;49.468;11.200;2023-02-14T06:22:35;99811.22;;;18.23;36.67
50057;BME280;36875;49.468;11.200;2023-02-14T06:25:01;99812.31;;;18.22;36.44
50057;BME280;36875;49.468;11.200;2023-02-14T06:27:29;99814.97;;;18.17;36.37
50057;BME280;36875;49.468;11.200;2023-02-14T06:29:54;99825.09;;;18.21;37.46
50057;BME280;36875;49.468;11.200;2023-02-14T06:32:20;99826.19;;;18.20;37.07
50057;BME280;36875;49.468;11.200;2023-02-14T06:34:45;99828.09;;;18.20;37.16
50057;BME280;36875;49.468;11.200;2023-02-14T06:37:11;99827.81;;;18.21;37.22
50057;BME280;36875;49.468;11.200;2023-02-14T06:39:36;99823.22;;;18.22;36.81
50057;BME280;36875;49.468;11.200;2023-02-14T06:42:02;99832.44;;;18.21;37.07
50057;BME280;36875;49.468;11.200;2023-02-14T06:44:28;99832.22;;;18.22;36.60
50057;BME280;36875;49.468;11.200;2023-02-14T06:46:54;99829.47;;;18.22;36.86
50057;BME280;36875;49.468;11.200;2023-02-14T06:49:19;99837.97;;;18.26;36.72
50057;BME280;36875;49.468;11.200;2023-02-14T06:51:45;99830.63;;;18.26;37.08
50057;BME280;36875;49.468;11.200;2023-02-14T06:54:10;99841.28;;;18.28;36.63
50057;BME280;36875;49.468;11.200;2023-02-14T06:56:36;99840.19;;;18.29;36.82
50057;BME280;36875;49.468;11.200;2023-02-14T06:59:01;99820.16;;;18.18;37.04
50057;BME280;36875;49.468;11.200;2023-02-14T07:01:28;99833.59;;;18.25;37.11
50057;BME280;36875;49.468;11.200;2023-02-14T07:03:54;99831.13;;;18.23;37.58
50057;BME280;36875;49.468;11.200;2023-02-14T07:06:19;99840.19;;;18.29;37.88
50057;BME280;36875;49.468;11.200;2023-02-14T07:08:45;99824.75;;;18.35;37.49
50057;BME280;36875;49.468;11.200;2023-02-14T07:11:10;99827.78;;;18.38;37.47
50057;BME280;36875;49.468;11.200;2023-02-14T07:13:36;99827.06;;;18.48;37.39
50057;BME280;36875;49.468;11.200;2023-02-14T07:16:01;99824.00;;;18.66;37.00
50057;BME280;36875;49.468;11.200;2023-02-14T07:18:28;99830.09;;;18.74;37.30
50057;BME280;36875;49.468;11.200;2023-02-14T07:20:54;99833.38;;;18.76;36.65
50057;BME280;36875;49.468;11.200;2023-02-14T07:23:19;99834.44;;;18.75;36.55
50057;BME280;36875;49.468;11.200;2023-02-14T07:25:45;99842.47;;;18.81;36.69
50057;BME280;36875;49.468;11.200;2023-02-14T07:28:10;99832.38;;;18.82;36.41
50057;BME280;36875;49.468;11.200;2023-02-14T07:30:36;99828.69;;;18.93;36.62
50057;BME280;36875;49.468;11.200;2023-02-14T07:33:01;99834.47;;;19.29;35.97
50057;BME280;36875;49.468;11.200;2023-02-14T07:35:28;99822.50;;;19.30;35.52
50057;BME280;36875;49.468;11.200;2023-02-14T07:37:54;99817.09;;;19.40;35.85
50057;BME280;36875;49.468;11.200;2023-02-14T07:40:19;99820.47;;;19.53;35.32
50057;BME280;36875;49.468;11.200;2023-02-14T07:42:51;99784.63;;;19.76;34.77
50057;BME280;36875;49.468;11.200;2023-02-14T07:45:16;99830.47;;;20.17;34.73
50057;BME280;36875;49.468;11.200;2023-02-14T07:47:42;99819.91;;;20.41;34.43
50057;BME280;36875;49.468;11.200;2023-02-14T07:50:08;99824.16;;;20.74;33.65
50057;BME280;36875;49.468;11.200;2023-02-14T07:52:35;99808.06;;;20.98;33.30
50057;BME280;36875;49.468;11.200;2023-02-14T07:55:00;99810.25;;;20.86;33.67
50057;BME280;36875;49.468;11.200;2023-02-14T07:57:27;99808.03;;;20.78;33.71
50057;BME280;36875;49.468;11.200;2023-02-14T07:59:53;99819.53;;;20.85;33.83
50057;BME280;36875;49.468;11.200;2023-02-14T08:02:18;99809.69;;;20.79;33.75
50057;BME280;36875;49.468;11.200;2023-02-14T08:04:45;99811.06;;;20.87;33.84
50057;BME280;36875;49.468;11.200;2023-02-14T08:07:10;99819.00;;;20.88;33.70
50057;BME280;36875;49.468;11.200;2023-02-14T08:09:37;99826.91;;;20.79;33.85
50057;BME280;36875;49.468;11.200;2023-02-14T08:12:03;99826.66;;;20.81;33.99
50057;BME280;36875;49.468;11.200;2023-02-14T08:14:47;99808.59;;;20.90;33.72
50057;BME280;36875;49.468;11.200;2023-02-14T08:17:13;99807.78;;;20.90;33.95
50057;BME280;36875;49.468;11.200;2023-02-14T08:19:39;99780.13;;;20.81;34.00
50057;BME280;36875;49.468;11.200;2023-02-14T08:22:05;99793.53;;;20.93;34.10
50057;BME280;36875;49.468;11.200;2023-02-14T08:24:31;99815.19;;;21.15;33.60
50057;BME280;36875;49.468;11.200;2023-02-14T08:26:58;99805.34;;;21.14;33.75
50057;BME280;36875;49.468;11.200;2023-02-14T08:29:24;99815.75;;;21.17;33.79
50057;BME280;36875;49.468;11.200;2023-02-14T08:31:50;99811.09;;;21.17;33.56
50057;BME280;36875;49.468;11.200;2023-02-14T08:34:17;99812.44;;;21.15;33.63
50057;BME280;36875;49.468;11.200;2023-02-14T08:36:42;99822.03;;;21.23;33.58
50057;BME280;36875;49.468;11.200;2023-02-14T08:39:10;99809.19;;;21.23;33.63
50057;BME280;36875;49.468;11.200;2023-02-14T08:41:36;99817.38;;;21.33;33.36
50057;BME280;36875;49.468;11.200;2023-02-14T08:44:03;99814.91;;;21.37;33.29
50057;BME280;36875;49.468;11.200;2023-02-14T08:46:28;99815.75;;;21.37;33.27
50057;BME280;36875;49.468;11.200;2023-02-14T08:48:54;99812.19;;;21.42;33.31
50057;BME280;36875;49.468;11.200;2023-02-14T08:51:20;99814.66;;;21.54;32.95
50057;BME280;36875;49.468;11.200;2023-02-14T08:53:50;99790.84;;;21.49;32.95
50057;BME280;36875;49.468;11.200;2023-02-14T08:56:16;99810.56;;;21.62;33.19
50057;BME280;36875;49.468;11.200;2023-02-14T08:58:43;99765.34;;;21.38;33.27
50057;BME280;36875;49.468;11.200;2023-02-14T09:01:12;99806.72;;;21.68;32.95
50057;BME280;36875;49.468;11.200;2023-02-14T09:03:37;99806.19;;;21.71;32.83
50057;BME280;36875;49.468;11.200;2023-02-14T09:06:05;99803.13;;;21.78;32.71
50057;BME280;36875;49.468;11.200;2023-02-14T09:08:30;99804.47;;;21.85;32.92
50057;BME280;36875;49.468;11.200;2023-02-14T09:10:58;99797.63;;;21.93;32.66
50057;BME280;36875;49.468;11.200;2023-02-14T09:13:23;99801.72;;;21.90;32.94
50057;BME280;36875;49.468;11.200;2023-02-14T09:15:49;99794.38;;;21.81;32.71
50057;BME280;36875;49.468;11.200;2023-02-14T09:18:16;99801.47;;;21.87;32.76
50057;BME280;36875;49.468;11.200;2023-02-14T09:20:41;99799.84;;;21.86;32.63
50057;BME280;36875;49.468;11.200;2023-02-14T09:23:08;99805.06;;;21.87;32.91
50057;BME280;36875;49.468;11.200;2023-02-14T09:25:34;99778.47;;;21.83;32.85
50057;BME280;36875;49.468;11.200;2023-02-14T09:27:59;99792.41;;;21.91;32.43
50057;BME280;36875;49.468;11.200;2023-02-14T09:30:25;99790.50;;;21.92;32.61
50057;BME280;36875;49.468;11.200;2023-02-14T09:32:51;99792.16;;;21.88;32.70
50057;BME280;36875;49.468;11.200;2023-02-14T09:35:18;99786.69;;;21.88;32.40
50057;BME280;36875;49.468;11.200;2023-02-14T09:37:44;99785.88;;;21.87;32.48
50057;BME280;36875;49.468;11.200;2023-02-14T09:40:12;99788.03;;;21.85;32.62
50057;BME280;36875;49.468;11.200;2023-02-14T09:42:49;99795.97;;;21.87;32.79
50057;BME280;36875;49.468;11.200;2023-02-14T09:45:20;99791.34;;;21.82;32.52
50057;BME280;36875;49.468;11.200;2023-02-14T09:47:48;99792.16;;;21.88;32.56
50057;BME280;36875;49.468;11.200;2023-02-14T09:50:23;99794.09;;;21.82;32.47
50057;BME280;36875;49.468;11.200;2023-02-14T09:52:52;99780.13;;;21.73;32.59
50057;BME280;36875;49.468;11.200;2023-02-14T09:55:19;99806.13;;;21.86;32.41
50057;BME280;36875;49.468;11.200;2023-02-14T09:57:57;99772.72;;;21.74;32.56
50057;BME280;36875;49.468;11.200;2023-02-14T10:00:28;99784.75;;;21.93;32.33
50057;BME280;36875;49.468;11.200;2023-02-14T10:03:05;99788.22;;;22.20;31.93
50057;BME280;36875;49.468;11.200;2023-02-14T10:05:39;99789.84;;;22.21;32.15
50057;BME280;36875;49.468;11.200;2023-02-14T10:08:16;99793.41;;;22.31;31.96
50057;BME280;36875;49.468;11.200;2023-02-14T10:10:48;99794.38;;;22.61;31.68
50057;BME280;36875;49.468;11.200;2023-02-14T10:13:21;99801.78;;;23.05;30.93
50057;BME280;36875;49.468;11.200;2023-02-14T10:15:57;99784.72;;;22.69;31.36
50057;BME280;36875;49.468;11.200;2023-02-14T10:18:27;99796.22;;;22.71;31.38
50057;BME280;36875;49.468;11.200;2023-02-14T10:20:57;99777.50;;;22.78;31.45
50057;BME280;36875;49.468;11.200;2023-02-14T10:23:29;99784.94;;;22.78;31.45
50057;BME280;36875;49.468;11.200;2023-02-14T10:25:59;99789.03;;;22.75;31.55
50057;BME280;36875;49.468;11.200;2023-02-14T10:28:30;99784.53;;;22.95;31.30
50057;BME280;36875;49.468;11.200;2023-02-14T10:31:03;99785.63;;;22.94;31.28
50057;BME280;36875;49.468;11.200;2023-02-14T10:33:37;99772.00;;;22.83;31.28
50057;BME280;36875;49.468;11.200;2023-02-14T10:36:09;99776.84;;;22.97;31.24
50057;BME280;36875;49.468;11.200;2023-02-14T10:38:44;99774.63;;;22.99;31.12
50057;BME280;36875;49.468;11.200;2023-02-14T10:41:22;99773.34;;;22.86;31.30
50057;BME280;36875;49.468;11.200;2023-02-14T10:44:00;99773.06;;;22.87;31.41
50057;BME280;36875;49.468;11.200;2023-02-14T10:46:35;99774.16;;;22.86;31.33
50057;BME280;36875;49.468;11.200;2023-02-14T10:49:18;99763.66;;;22.94;31.00
50057;BME280;36875;49.468;11.200;2023-02-14T10:51:53;99765.06;;;22.91;31.00
50057;BME280;36875;49.468;11.200;2023-02-14T10:54:21;99766.47;;;22.88;31.25
50057;BME280;36875;49.468;11.200;2023-02-14T10:56:53;99768.03;;;23.00;30.99
50057;BME280;36875;49.468;11.200;2023-02-14T11:01:48;99758.38;;;23.42;30.60
50057;BME280;36875;49.468;11.200;2023-02-14T11:04:15;99761.44;;;23.64;30.20
50057;BME280;36875;49.468;11.200;2023-02-14T11:06:41;99753.25;;;23.59;30.23
50057;BME280;36875;49.468;11.200;2023-02-14T11:09:09;99751.13;;;23.51;30.54
50057;BME280;36875;49.468;11.200;2023-02-14T11:11:38;99748.97;;;23.48;30.62
50057;BME280;36875;49.468;11.200;2023-02-14T11:14:18;99752.03;;;23.41;30.83
50057;BME280;36875;49.468;11.200;2023-02-14T11:16:44;99752.09;;;23.36;30.83
50057;BME280;36875;49.468;11.200;2023-02-14T11:19:20;99748.75;;;23.39;30.66
50057;BME280;36875;49.468;11.200;2023-02-14T11:21:47;99744.47;;;23.28;31.25
50057;BME280;36875;49.468;11.200;2023-02-14T11:24:25;99746.97;;;23.24;31.12
50057;BME280;36875;49.468;11.200;2023-02-14T11:26:52;99741.25;;;23.21;31.53
50057;BME280;36875;49.468;11.200;2023-02-14T11:29:25;99732.19;;;23.20;31.11
50057;BME280;36875;49.468;11.200;2023-02-14T11:31:51;99732.72;;;23.22;31.09
50057;BME280;36875;49.468;11.200;2023-02-14T11:34:27;99730.25;;;23.21;30.96
50057;BME280;36875;49.468;11.200;2023-02-14T11:36:55;99720.91;;;23.22;30.96
50057;BME280;36875;49.468;11.200;2023-02-14T11:39:27;99731.66;;;23.18;31.43
50057;BME280;36875;49.468;11.200;2023-02-14T11:41:55;99726.22;;;23.13;31.39
50057;BME280;36875;49.468;11.200;2023-02-14T11:44:23;99728.66;;;23.15;31.13
50057;BME280;36875;49.468;11.200;2023-02-14T11:46:49;99725.94;;;23.15;31.21
50057;BME280;36875;49.468;11.200;2023-02-14T11:49:24;99721.03;;;23.06;31.61
50057;BME280;36875;49.468;11.200;2023-02-14T11:51:53;99705.16;;;22.98;31.56
50057;BME280;36875;49.468;11.200;2023-02-14T11:54:31;99712.28;;;22.99;31.54
50057;BME280;36875;49.468;11.200;2023-02-14T11:57:02;99710.66;;;22.98;31.60
50057;BME280;36875;49.468;11.200;2023-02-14T11:59:30;99690.97;;;22.86;31.80
50057;BME280;36875;49.468;11.200;2023-02-14T12:02:00;99697.28;;;22.86;31.87
50057;BME280;36875;49.468;11.200;2023-02-14T12:04:32;99702.84;;;22.81;32.13
50057;BME280;36875;49.468;11.200;2023-02-14T12:07:16;99691.91;;;22.76;31.92
50057;BME280;36875;49.468;11.200;2023-02-14T12:09:44;99692.75;;;22.71;31.88
50057;BME280;36875;49.468;11.200;2023-02-14T12:12:19;99695.81;;;22.65;32.00
50057;BME280;36875;49.468;11.200;2023-02-14T12:14:45;99683.47;;;22.62;32.08
50057;BME280;36875;49.468;11.200;2023-02-14T12:17:19;99679.91;;;22.62;32.26
50057;BME280;36875;49.468;11.200;2023-02-14T12:19:52;99679.66;;;22.58;32.28
50057;BME280;36875;49.468;11.200;2023-02-14T12:22:21;99677.81;;;22.54;32.48
50057;BME280;36875;49.468;11.200;2023-02-14T12:24:58;99669.59;;;22.48;32.42
50057;BME280;36875;49.468;11.200;2023-02-14T12:27:27;99676.47;;;22.46;32.37
50057;BME280;36875;49.468;11.200;2023-02-14T12:29:58;99664.94;;;22.44;32.50
50057;BME280;36875;49.468;11.200;2023-02-14T12:32:28;99655.69;;;22.35;32.51
50057;BME280;36875;49.468;11.200;2023-02-14T12:35:00;99664.75;;;22.35;32.45
50057;BME280;36875;49.468;11.200;2023-02-14T12:37:33;99656.03;;;22.28;32.38
50057;BME280;36875;49.468;11.200;2023-02-14T12:40:21;99652.16;;;22.29;32.48
50057;BME280;36875;49.468;11.200;2023-02-14T12:43:21;99655.50;;;22.26;32.19
50057;BME280;36875;49.468;11.200;2023-02-14T12:46:02;99650.28;;;22.19;32.33
50057;BME280;36875;49.468;11.200;2023-02-14T12:48:47;99647.28;;;22.16;32.16
50057;BME280;36875;49.468;11.200;2023-02-14T12:51:22;99642.34;;;22.12;32.37
50057;BME280;36875;49.468;11.200;2023-02-14T12:54:00;99638.03;;;22.06;32.40
50057;BME280;36875;49.468;11.200;2023-02-14T12:56:37;99637.16;;;22.11;32.37
50057;BME280;36875;49.468;11.200;2023-02-14T12:59:17;99635.28;;;22.06;32.49
50057;BME280;36875;49.468;11.200;2023-02-14T13:02:12;99624.88;;;21.98;32.55
50057;BME280;36875;49.468;11.200;2023-02-14T13:04:49;99632.56;;;22.01;32.50
50057;BME280;36875;49.468;11.200;2023-02-14T13:07:30;99620.53;;;21.97;32.46
50057;BME280;36875;49.468;11.200;2023-02-14T13:10:11;99603.84;;;21.88;32.51
50057;BME280;36875;49.468;11.200;2023-02-14T13:12:44;99612.84;;;21.94;32.44